Time;durP1;ratioP1;P1;durP2;ratioP2;P2;SDS_P1;SDS_P2;PMS_P1;PMS_P2;Temp;Humidity;BMP_temperature;BMP_pressure;BME280_temperature;BME280_humidity;BME280_pressure;Samples;Min_cycle;Max_cycle;Signal;HPM_P1;HPM_P2
2021/09/30 07:09:46;;;;;;;10.02;3.35;;;;;;;;;;6133433;22;20369;-56
2021/09/30 07:12:12;;;;;;;7.40;2.55;;;;;;;;;;6179497;23;20361;-55
2021/09/30 07:14:39;;;;;;;5.50;2.25;;;;;;;;;;6180391;23;20365;-48
2021/09/30 07:17:05;;;;;;;4.72;2.45;;;;;;;;;;6179886;23;20353;-49
2021/09/30 07:19:33;;;;;;;5.05;2.33;;;;;;;;;;6168548;23;20385;-49
2021/09/30 07:21:59;;;;;;;7.80;2.37;;;;;;;;;;6181324;23;20344;-49
2021/09/30 07:24:25;;;;;;;6.22;2.28;;;;;;;;;;6211027;23;20368;-52
2021/09/30 07:26:52;;;;;;;5.47;2.20;;;;;;;;;;6211727;23;20331;-50
2021/09/30 07:29:18;;;;;;;5.95;2.58;;;;;;;;;;6211273;23;20410;-51
2021/09/30 07:31:44;;;;;;;5.35;2.20;;;;;;;;;;6211117;23;20363;-49
2021/09/30 07:34:13;;;;;;;5.53;2.22;;;;;;;;;;6211226;23;20336;-48
2021/09/30 07:36:40;;;;;;;7.10;2.43;;;;;;;;;;6211336;23;20752;-51
2021/09/30 07:39:07;;;;;;;5.78;2.22;;;;;;;;;;6211596;23;20362;-50
2021/09/30 07:41:36;;;;;;;4.40;2.40;;;;;;;;;;6211231;23;20335;-49
2021/09/30 07:44:03;;;;;;;7.70;2.63;;;;;;;;;;6211329;23;20351;-50
2021/09/30 07:46:31;;;;;;;6.03;2.33;;;;;;;;;;6210783;23;20826;-49
2021/09/30 07:48:59;;;;;;;4.88;2.35;;;;;;;;;;6211131;23;20404;-50
2021/09/30 07:51:26;;;;;;;6.60;2.60;;;;;;;;;;6210656;23;20748;-50
2021/09/30 07:53:52;;;;;;;4.97;2.33;;;;;;;;;;6209782;23;20331;-51
2021/09/30 07:56:19;;;;;;;6.70;2.60;;;;;;;;;;6209350;23;20336;-52
2021/09/30 07:58:45;;;;;;;9.52;2.50;;;;;;;;;;6211488;23;20479;-54
2021/09/30 08:01:11;;;;;;;5.15;2.15;;;;;;;;;;6210926;23;20380;-50
2021/09/30 08:03:37;;;;;;;6.88;2.40;;;;;;;;;;6183919;23;20336;-56
2021/09/30 08:06:04;;;;;;;7.07;2.60;;;;;;;;;;6211315;23;20351;-54
2021/09/30 08:08:30;;;;;;;8.75;2.40;;;;;;;;;;6210804;23;20811;-55
2021/09/30 08:10:56;;;;;;;7.90;2.45;;;;;;;;;;6207136;23;20367;-54
2021/09/30 08:13:22;;;;;;;6.90;2.30;;;;;;;;;;6209524;23;20581;-59
2021/09/30 08:15:48;;;;;;;5.07;2.38;;;;;;;;;;6210580;23;20328;-61
2021/09/30 08:18:15;;;;;;;7.85;2.47;;;;;;;;;;6207905;23;20328;-60
2021/09/30 08:20:44;;;;;;;6.20;2.38;;;;;;;;;;6209798;23;20644;-59
2021/09/30 08:23:14;;;;;;;5.85;2.58;;;;;;;;;;6183208;23;20348;-57
2021/09/30 08:25:40;;;;;;;4.35;2.15;;;;;;;;;;6183613;23;20381;-55
2021/09/30 08:28:06;;;;;;;5.72;2.30;;;;;;;;;;6183080;23;20354;-55
2021/09/30 08:30:35;;;;;;;6.10;2.40;;;;;;;;;;6210843;23;20401;-58
2021/09/30 08:33:05;;;;;;;5.80;2.00;;;;;;;;;;6185113;23;20473;-54
2021/09/30 08:35:31;;;;;;;5.85;2.35;;;;;;;;;;6210499;23;20344;-57
2021/09/30 08:37:57;;;;;;;5.63;2.17;;;;;;;;;;6211907;23;20340;-60
2021/09/30 08:40:26;;;;;;;6.13;2.40;;;;;;;;;;6211271;23;20367;-57
2021/09/30 08:42:52;;;;;;;4.35;2.00;;;;;;;;;;6212060;23;20332;-52
2021/09/30 08:45:22;;;;;;;5.72;2.30;;;;;;;;;;6182151;23;20359;-56
2021/09/30 08:47:59;;;;;;;6.15;2.30;;;;;;;;;;6209392;23;20435;-58
2021/09/30 08:50:25;;;;;;;5.90;2.30;;;;;;;;;;6210943;23;20344;-58
2021/09/30 08:52:51;;;;;;;5.47;2.30;;;;;;;;;;6210901;23;20339;-59
2021/09/30 08:55:18;;;;;;;8.88;2.25;;;;;;;;;;6210992;23;20355;-60
2021/09/30 08:57:45;;;;;;;4.97;2.22;;;;;;;;;;6209805;23;20385;-51
2021/09/30 09:00:11;;;;;;;5.65;2.40;;;;;;;;;;6184422;23;20450;-51
2021/09/30 09:02:45;;;;;;;4.25;1.92;;;;;;;;;;6210278;23;20984;-52
2021/09/30 09:05:11;;;;;;;4.43;2.05;;;;;;;;;;6210146;23;20337;-49
2021/09/30 09:07:40;;;;;;;6.32;2.33;;;;;;;;;;6207988;23;20670;-52
2021/09/30 09:10:09;;;;;;;6.30;2.13;;;;;;;;;;6182502;23;20842;-51
2021/09/30 09:12:35;;;;;;;4.50;1.90;;;;;;;;;;6182676;23;20372;-53
2021/09/30 09:15:02;;;;;;;4.30;2.08;;;;;;;;;;6209523;23;20358;-56
2021/09/30 09:17:28;;;;;;;5.43;2.30;;;;;;;;;;6209574;23;20398;-58
2021/09/30 09:19:55;;;;;;;4.53;2.00;;;;;;;;;;6210852;23;20387;-56
2021/09/30 09:22:28;;;;;;;4.68;2.10;;;;;;;;;;6210213;23;20343;-50
2021/09/30 09:24:54;;;;;;;6.25;2.33;;;;;;;;;;6210809;23;20332;-53
2021/09/30 09:27:21;;;;;;;4.00;1.92;;;;;;;;;;6209992;23;20394;-54
2021/09/30 09:29:47;;;;;;;8.40;2.40;;;;;;;;;;6210809;23;20346;-54
2021/09/30 09:32:13;;;;;;;5.60;2.40;;;;;;;;;;6209923;23;20715;-53
2021/09/30 09:34:40;;;;;;;4.00;2.05;;;;;;;;;;6210005;23;20350;-56
2021/09/30 09:39:55;;;;;;;5.15;2.30;;;;;;;;;;6208814;23;20377;-56
2021/09/30 09:42:25;;;;;;;4.15;2.08;;;;;;;;;;6209258;23;20343;-53
2021/09/30 09:44:51;;;;;;;5.47;2.33;;;;;;;;;;6210398;23;20366;-52
2021/09/30 09:47:21;;;;;;;6.38;2.28;;;;;;;;;;6182778;23;20371;-55
2021/09/30 09:50:07;;;;;;;6.97;2.40;;;;;;;;;;6181797;23;20347;-52
2021/09/30 09:52:40;;;;;;;4.38;2.55;;;;;;;;;;6209841;23;20355;-55
2021/09/30 09:55:13;;;;;;;7.25;2.45;;;;;;;;;;6210246;23;20858;-53
2021/09/30 09:57:40;;;;;;;5.35;2.20;;;;;;;;;;6210665;23;20359;-49
2021/09/30 10:00:15;;;;;;;6.83;2.63;;;;;;;;;;6210010;23;20455;-50
2021/09/30 10:02:41;;;;;;;6.32;2.42;;;;;;;;;;6210129;23;20344;-48
2021/09/30 10:05:07;;;;;;;5.68;2.50;;;;;;;;;;6210064;23;20788;-53
2021/09/30 10:07:33;;;;;;;7.57;2.73;;;;;;;;;;6209690;23;20336;-51
2021/09/30 10:10:00;;;;;;;5.53;2.22;;;;;;;;;;6182926;23;20376;-48
2021/09/30 10:12:26;;;;;;;5.50;2.30;;;;;;;;;;6211044;23;20359;-49
2021/09/30 10:14:52;;;;;;;5.40;2.50;;;;;;;;;;6210063;23;20336;-49
2021/09/30 10:17:19;;;;;;;5.95;2.55;;;;;;;;;;6210239;23;20390;-49
2021/09/30 10:19:46;;;;;;;6.53;2.70;;;;;;;;;;6182485;23;20383;-51
2021/09/30 10:22:12;;;;;;;7.80;2.83;;;;;;;;;;6209855;23;20672;-50
2021/09/30 10:24:38;;;;;;;5.75;2.50;;;;;;;;;;6210465;23;20336;-49
2021/09/30 10:27:06;;;;;;;5.53;2.42;;;;;;;;;;6183884;23;20358;-48
2021/09/30 10:29:37;;;;;;;4.05;1.90;;;;;;;;;;6210140;23;20331;-48
2021/09/30 10:32:03;;;;;;;6.95;2.45;;;;;;;;;;6210129;23;20340;-55
2021/09/30 10:34:31;;;;;;;4.70;1.98;;;;;;;;;;6183337;23;20357;-51
2021/09/30 10:37:16;;;;;;;5.78;2.22;;;;;;;;;;6183055;23;20369;-52
2021/09/30 10:39:48;;;;;;;5.57;2.47;;;;;;;;;;6182562;23;20375;-50
2021/09/30 10:42:58;;;;;;;6.18;2.13;;;;;;;;;;6210210;23;20410;-50
2021/09/30 10:45:26;;;;;;;9.30;2.95;;;;;;;;;;6057962;23;20416;-55
2021/09/30 10:47:53;;;;;;;7.57;2.20;;;;;;;;;;6187496;23;20672;-55
2021/09/30 10:50:19;;;;;;;7.30;2.30;;;;;;;;;;6208754;23;20427;-55
2021/09/30 10:52:53;;;;;;;6.10;2.20;;;;;;;;;;6210045;23;20328;-52
2021/09/30 10:55:21;;;;;;;6.38;2.50;;;;;;;;;;6208829;23;20806;-54
2021/09/30 10:57:48;;;;;;;4.32;1.90;;;;;;;;;;6183138;23;20394;-56
2021/09/30 11:00:17;;;;;;;5.65;2.30;;;;;;;;;;6209874;23;20367;-54
2021/09/30 11:03:02;;;;;;;7.03;2.28;;;;;;;;;;6210008;23;20343;-55
2021/09/30 11:05:32;;;;;;;6.60;2.47;;;;;;;;;;6209698;23;20478;-54
2021/09/30 11:08:16;;;;;;;5.80;2.05;;;;;;;;;;6209940;23;20332;-52
2021/09/30 11:11:06;;;;;;;6.32;2.08;;;;;;;;;;6182374;23;20634;-55
2021/09/30 11:13:32;;;;;;;5.60;2.25;;;;;;;;;;6210264;23;20336;-54
2021/09/30 11:16:17;;;;;;;4.28;2.00;;;;;;;;;;6209850;23;20898;-53
2021/09/30 11:18:54;;;;;;;5.00;2.08;;;;;;;;;;6209546;23;20340;-51
2021/09/30 11:21:32;;;;;;;7.47;2.17;;;;;;;;;;6210913;23;20407;-54
2021/09/30 11:24:01;;;;;;;4.75;1.98;;;;;;;;;;6185300;23;20772;-53
2021/09/30 11:26:28;;;;;;;4.32;1.88;;;;;;;;;;6185167;23;20427;-53
2021/09/30 11:28:55;;;;;;;5.75;2.17;;;;;;;;;;6210937;23;20336;-51
2021/09/30 11:31:25;;;;;;;6.32;2.20;;;;;;;;;;6211799;23;20340;-53
2021/09/30 11:33:53;;;;;;;4.38;1.75;;;;;;;;;;6211206;23;20344;-51
2021/09/30 11:36:28;;;;;;;4.07;1.85;;;;;;;;;;6211976;23;20332;-50
2021/09/30 11:38:57;;;;;;;6.25;2.28;;;;;;;;;;6210880;23;20340;-51
2021/09/30 11:41:33;;;;;;;5.15;1.75;;;;;;;;;;6211068;23;20376;-52
2021/09/30 11:44:00;;;;;;;5.75;2.00;;;;;;;;;;6184592;23;20382;-53
2021/09/30 11:46:30;;;;;;;4.93;2.00;;;;;;;;;;6211031;23;20394;-53
2021/09/30 11:49:01;;;;;;;5.18;2.00;;;;;;;;;;6210419;23;20837;-52
2021/09/30 11:51:30;;;;;;;5.50;2.00;;;;;;;;;;6183756;23;20429;-53
2021/09/30 11:53:56;;;;;;;5.00;1.70;;;;;;;;;;6211161;23;20394;-55
2021/09/30 11:56:22;;;;;;;4.07;1.60;;;;;;;;;;6211626;23;20414;-55
2021/09/30 11:59:02;;;;;;;4.20;1.67;;;;;;;;;;6210882;23;20749;-51
2021/09/30 12:01:48;;;;;;;4.55;1.70;;;;;;;;;;6184338;23;20458;-56
2021/09/30 12:04:28;;;;;;;5.10;1.75;;;;;;;;;;6184063;23;20356;-55
2021/09/30 12:06:55;;;;;;;5.28;2.00;;;;;;;;;;6183644;23;20455;-55
2021/09/30 12:09:22;;;;;;;6.30;2.22;;;;;;;;;;6210817;23;20440;-56
2021/09/30 12:11:52;;;;;;;5.00;1.85;;;;;;;;;;6211933;23;20375;-55
2021/09/30 12:14:19;;;;;;;5.32;1.92;;;;;;;;;;6184702;23;20680;-53
2021/09/30 12:17:00;;;;;;;4.68;1.70;;;;;;;;;;6211470;23;20355;-56
2021/09/30 12:19:32;;;;;;;4.50;1.50;;;;;;;;;;6210769;23;20796;-54
2021/09/30 12:22:00;;;;;;;7.37;1.60;;;;;;;;;;6210492;23;20347;-54
2021/09/30 12:24:29;;;;;;;7.40;1.90;;;;;;;;;;6183809;23;20348;-55
2021/09/30 12:26:56;;;;;;;4.57;1.70;;;;;;;;;;6205988;23;20371;-56
2021/09/30 12:29:23;;;;;;;4.55;1.70;;;;;;;;;;6210577;23;20351;-58
2021/09/30 12:32:05;;;;;;;4.32;1.60;;;;;;;;;;6210095;23;20653;-52
2021/09/30 12:34:31;;;;;;;4.88;1.70;;;;;;;;;;6209691;23;20336;-53
2021/09/30 12:36:58;;;;;;;5.93;1.73;;;;;;;;;;6211476;23;20339;-50
2021/09/30 12:39:25;;;;;;;4.93;1.58;;;;;;;;;;6211304;23;20436;-51
2021/09/30 12:41:51;;;;;;;4.18;1.48;;;;;;;;;;6184897;23;20820;-57
2021/09/30 12:44:18;;;;;;;6.88;1.95;;;;;;;;;;6211146;23;20405;-53
2021/09/30 12:46:45;;;;;;;4.18;1.50;;;;;;;;;;6185091;23;20679;-52
2021/09/30 12:49:11;;;;;;;4.32;1.73;;;;;;;;;;6209595;23;20343;-50
2021/09/30 12:51:37;;;;;;;5.38;1.80;;;;;;;;;;6211721;23;20482;-52
2021/09/30 12:54:06;;;;;;;6.65;1.70;;;;;;;;;;6211400;23;20362;-51
2021/09/30 12:56:34;;;;;;;4.50;1.48;;;;;;;;;;6184530;23;20355;-55
2021/09/30 12:59:14;;;;;;;5.55;1.65;;;;;;;;;;6210817;23;20777;-48
2021/09/30 13:01:41;;;;;;;6.03;1.73;;;;;;;;;;6184031;23;20736;-57
2021/09/30 13:04:13;;;;;;;5.05;1.52;;;;;;;;;;6184164;23;20351;-57
2021/09/30 13:06:41;;;;;;;6.78;1.80;;;;;;;;;;6184513;23;20390;-58
2021/09/30 13:09:18;;;;;;;6.03;1.90;;;;;;;;;;6210992;23;20327;-55
2021/09/30 13:11:49;;;;;;;5.63;1.85;;;;;;;;;;6210505;23;20421;-55
2021/09/30 13:14:16;;;;;;;6.35;1.80;;;;;;;;;;6184027;23;20362;-56
2021/09/30 13:16:43;;;;;;;5.82;1.55;;;;;;;;;;6184681;23;20764;-54
2021/09/30 13:19:10;;;;;;;7.43;1.92;;;;;;;;;;6210907;23;20533;-49
2021/09/30 13:21:54;;;;;;;4.05;1.52;;;;;;;;;;6210002;23;20419;-57
2021/09/30 13:24:20;;;;;;;6.55;1.60;;;;;;;;;;6211661;23;20342;-53
2021/09/30 13:26:46;;;;;;;5.40;1.90;;;;;;;;;;6207901;23;20347;-52
2021/09/30 13:29:12;;;;;;;5.63;1.80;;;;;;;;;;6210041;23;20336;-53
2021/09/30 13:31:38;;;;;;;5.20;1.60;;;;;;;;;;6208762;23;20335;-56
2021/09/30 13:34:04;;;;;;;5.73;1.67;;;;;;;;;;6207861;23;20347;-58
2021/09/30 13:36:34;;;;;;;5.40;1.50;;;;;;;;;;6210661;23;20388;-58
2021/09/30 13:39:01;;;;;;;6.10;1.60;;;;;;;;;;6210692;23;20339;-56
2021/09/30 13:41:27;;;;;;;4.00;1.48;;;;;;;;;;6183272;23;20383;-50
2021/09/30 13:43:53;;;;;;;4.32;1.63;;;;;;;;;;6209888;23;20340;-55
2021/09/30 13:46:20;;;;;;;6.88;1.70;;;;;;;;;;6211073;23;20415;-56
2021/09/30 13:48:46;;;;;;;6.88;1.80;;;;;;;;;;6182630;23;20959;-59
2021/09/30 13:51:12;;;;;;;5.63;1.75;;;;;;;;;;6210588;23;20367;-58
2021/09/30 13:53:38;;;;;;;5.88;1.58;;;;;;;;;;6210766;23;20410;-55
2021/09/30 13:56:04;;;;;;;5.43;2.00;;;;;;;;;;6210433;23;20332;-54
2021/09/30 13:58:35;;;;;;;5.43;1.60;;;;;;;;;;6210194;23;20339;-50
2021/09/30 14:01:01;;;;;;;5.68;1.80;;;;;;;;;;6209694;23;20441;-51
2021/09/30 14:03:27;;;;;;;6.60;1.65;;;;;;;;;;6183327;23;20344;-54
2021/09/30 14:05:53;;;;;;;4.90;1.60;;;;;;;;;;6183778;23;21034;-51
2021/09/30 14:08:20;;;;;;;6.00;1.50;;;;;;;;;;6211110;23;20419;-49
2021/09/30 14:10:46;;;;;;;6.00;1.70;;;;;;;;;;6211265;23;20457;-55
2021/09/30 14:13:16;;;;;;;5.50;1.40;;;;;;;;;;6210733;23;20340;-49
2021/09/30 14:15:43;;;;;;;4.57;1.20;;;;;;;;;;6211261;23;20378;-52
2021/09/30 14:18:10;;;;;;;5.03;1.40;;;;;;;;;;6211334;23;20385;-52
2021/09/30 14:20:36;;;;;;;4.85;1.40;;;;;;;;;;6210457;23;20404;-50
2021/09/30 14:23:02;;;;;;;4.22;1.30;;;;;;;;;;6184747;23;20355;-50
2021/09/30 14:25:28;;;;;;;3.63;1.40;;;;;;;;;;6184211;23;20409;-51
2021/09/30 14:27:55;;;;;;;5.43;1.67;;;;;;;;;;6210398;23;20339;-51
2021/09/30 14:30:21;;;;;;;4.88;1.48;;;;;;;;;;6211116;23;20346;-54
2021/09/30 14:32:49;;;;;;;3.45;1.40;;;;;;;;;;6210867;23;21191;-49
2021/09/30 14:35:17;;;;;;;5.50;2.00;;;;;;;;;;6210858;23;20339;-52
2021/09/30 14:37:47;;;;;;;4.18;1.27;;;;;;;;;;6210533;23;20361;-53
2021/09/30 14:40:13;;;;;;;3.83;1.47;;;;;;;;;;6209824;23;20379;-53
2021/09/30 14:42:40;;;;;;;5.10;1.27;;;;;;;;;;6210581;23;20335;-55
2021/09/30 14:45:07;;;;;;;3.90;1.50;;;;;;;;;;6210702;23;20324;-56
2021/09/30 14:47:33;;;;;;;3.97;1.20;;;;;;;;;;6211537;23;20335;-53
2021/09/30 14:49:59;;;;;;;3.53;1.27;;;;;;;;;;6211073;23;20339;-47
2021/09/30 14:52:26;;;;;;;5.37;1.40;;;;;;;;;;6211125;23;20784;-53
2021/09/30 14:54:52;;;;;;;5.45;1.50;;;;;;;;;;6210850;23;20456;-53
2021/09/30 14:57:20;;;;;;;4.05;1.20;;;;;;;;;;6212434;23;20390;-52
2021/09/30 14:59:46;;;;;;;3.95;1.40;;;;;;;;;;6212528;23;20461;-52
2021/09/30 15:02:13;;;;;;;3.20;1.20;;;;;;;;;;6213010;23;20343;-51
2021/09/30 15:04:42;;;;;;;4.35;1.50;;;;;;;;;;6185024;23;20765;-51
2021/09/30 15:07:08;;;;;;;4.93;1.35;;;;;;;;;;6212417;23;20724;-56
2021/09/30 15:09:35;;;;;;;5.23;1.63;;;;;;;;;;6211713;23;20451;-48
2021/09/30 15:12:01;;;;;;;8.70;2.08;;;;;;;;;;6211704;23;20366;-48
2021/09/30 15:14:27;;;;;;;7.03;1.73;;;;;;;;;;6212951;23;20335;-51
2021/09/30 15:17:10;;;;;;;6.65;1.90;;;;;;;;;;6212022;23;20328;-50
2021/09/30 15:22:24;;;;;;;5.80;1.45;;;;;;;;;;6211646;23;20630;-47
2021/09/30 15:24:50;;;;;;;6.30;1.77;;;;;;;;;;6211843;23;20335;-47
2021/09/30 15:27:17;;;;;;;5.05;1.20;;;;;;;;;;6185176;23;20429;-47
2021/09/30 15:29:43;;;;;;;5.47;1.40;;;;;;;;;;6212103;23;20362;-47
2021/09/30 15:32:09;;;;;;;5.57;1.30;;;;;;;;;;6212100;23;20404;-57
2021/09/30 15:34:35;;;;;;;4.13;1.40;;;;;;;;;;6211556;23;20340;-59
2021/09/30 15:37:01;;;;;;;5.20;1.20;;;;;;;;;;6211870;23;20332;-57
2021/09/30 15:39:27;;;;;;;7.78;1.85;;;;;;;;;;6211762;23;20336;-51
2021/09/30 15:41:53;;;;;;;7.40;1.67;;;;;;;;;;6212332;23;20438;-53
2021/09/30 15:44:19;;;;;;;6.47;1.35;;;;;;;;;;6212437;23;20352;-53
2021/09/30 15:46:47;;;;;;;7.07;1.45;;;;;;;;;;6211565;23;20344;-49
2021/09/30 15:49:16;;;;;;;7.05;1.60;;;;;;;;;;6210938;23;20332;-50
2021/09/30 15:51:43;;;;;;;6.75;1.75;;;;;;;;;;6185721;23;20331;-48
2021/09/30 15:54:09;;;;;;;5.40;1.60;;;;;;;;;;6209754;23;20427;-48
2021/09/30 15:56:35;;;;;;;6.95;1.30;;;;;;;;;;6211314;23;20388;-49
2021/09/30 15:59:02;;;;;;;5.30;1.55;;;;;;;;;;6211636;23;20339;-48
2021/09/30 16:01:29;;;;;;;4.63;1.30;;;;;;;;;;6212005;23;20374;-47
2021/09/30 16:03:56;;;;;;;5.65;1.35;;;;;;;;;;6211808;23;20340;-51
2021/09/30 16:06:23;;;;;;;4.00;1.13;;;;;;;;;;6211112;23;20363;-51
2021/09/30 16:08:49;;;;;;;5.05;1.48;;;;;;;;;;6183564;23;20351;-49
2021/09/30 16:11:17;;;;;;;7.00;1.85;;;;;;;;;;6211208;23;20430;-49
2021/09/30 16:13:44;;;;;;;9.65;2.13;;;;;;;;;;6184659;23;20356;-48
2021/09/30 16:16:13;;;;;;;7.20;1.77;;;;;;;;;;6211291;23;20364;-48
2021/09/30 16:18:40;;;;;;;5.28;1.55;;;;;;;;;;6211025;23;20382;-47
2021/09/30 16:21:07;;;;;;;4.88;1.67;;;;;;;;;;6210950;23;20470;-51
2021/09/30 16:23:34;;;;;;;5.95;1.55;;;;;;;;;;6210881;23;20488;-49
2021/09/30 16:26:00;;;;;;;5.05;1.67;;;;;;;;;;6211272;23;20352;-48
2021/09/30 16:28:26;;;;;;;3.92;1.30;;;;;;;;;;6210873;23;20341;-50
2021/09/30 16:30:55;;;;;;;5.00;1.50;;;;;;;;;;6210416;23;20336;-48
2021/09/30 16:33:23;;;;;;;4.82;1.30;;;;;;;;;;6210987;23;20328;-47
2021/09/30 16:35:52;;;;;;;5.68;1.50;;;;;;;;;;6210148;23;20344;-53
2021/09/30 16:38:21;;;;;;;4.95;1.65;;;;;;;;;;6210646;23;20467;-54
2021/09/30 16:40:49;;;;;;;4.55;1.60;;;;;;;;;;6210772;23;20772;-53
2021/09/30 16:43:15;;;;;;;4.53;1.67;;;;;;;;;;6210763;23;20785;-52
2021/09/30 16:45:41;;;;;;;7.10;1.87;;;;;;;;;;6211250;23;20339;-54
2021/09/30 16:48:07;;;;;;;4.63;1.70;;;;;;;;;;6210383;23;20343;-56
2021/09/30 16:50:34;;;;;;;9.32;3.58;;;;;;;;;;6210725;23;20419;-52
2021/09/30 16:53:01;;;;;;;6.07;2.15;;;;;;;;;;6210975;23;20344;-53
2021/09/30 16:55:27;;;;;;;5.50;1.80;;;;;;;;;;6210738;23;20351;-51
2021/09/30 16:57:53;;;;;;;7.47;1.80;;;;;;;;;;6182731;23;20356;-55
2021/09/30 17:00:20;;;;;;;6.75;1.90;;;;;;;;;;6210092;23;20378;-56
2021/09/30 17:02:46;;;;;;;4.80;1.52;;;;;;;;;;6210396;23;20344;-55
2021/09/30 17:05:13;;;;;;;7.38;2.03;;;;;;;;;;6209567;23;20335;-57
2021/09/30 17:07:42;;;;;;;4.90;1.48;;;;;;;;;;6209831;23;20340;-55
2021/09/30 17:10:10;;;;;;;3.27;1.17;;;;;;;;;;6210345;23;20368;-53
2021/09/30 17:12:36;;;;;;;4.75;1.48;;;;;;;;;;6183375;23;20351;-52
2021/09/30 17:15:06;;;;;;;6.22;1.48;;;;;;;;;;6183688;23;20344;-50
2021/09/30 17:17:33;;;;;;;7.88;2.25;;;;;;;;;;6210139;23;20368;-52
2021/09/30 17:20:00;;;;;;;6.22;1.65;;;;;;;;;;6208954;23;20360;-53
2021/09/30 17:22:26;;;;;;;4.82;1.40;;;;;;;;;;6183548;23;20355;-51
2021/09/30 17:24:52;;;;;;;5.40;1.63;;;;;;;;;;6210722;23;20332;-51
2021/09/30 17:27:18;;;;;;;5.85;1.98;;;;;;;;;;6210713;23;20328;-53
2021/09/30 17:29:44;;;;;;;4.65;1.38;;;;;;;;;;6183507;23;20395;-50
2021/09/30 17:32:10;;;;;;;6.32;1.40;;;;;;;;;;6210325;23;20339;-51
2021/09/30 17:34:37;;;;;;;7.13;1.48;;;;;;;;;;6209747;23;20398;-50
2021/09/30 17:37:03;;;;;;;5.18;1.25;;;;;;;;;;6209112;23;20324;-51
2021/09/30 17:39:30;;;;;;;5.25;1.50;;;;;;;;;;6210554;23;20416;-52
2021/09/30 17:41:56;;;;;;;4.40;1.40;;;;;;;;;;6183608;23;20610;-52
2021/09/30 17:44:23;;;;;;;5.30;1.40;;;;;;;;;;6209842;23;20893;-51
2021/09/30 17:46:50;;;;;;;4.87;1.30;;;;;;;;;;6209969;23;20333;-54
2021/09/30 17:49:16;;;;;;;5.22;1.67;;;;;;;;;;6209879;23;20718;-54
2021/09/30 17:51:42;;;;;;;5.07;1.40;;;;;;;;;;6182108;23;20654;-52
2021/09/30 17:54:08;;;;;;;6.32;1.67;;;;;;;;;;6208205;23;20351;-51
2021/09/30 17:56:34;;;;;;;6.00;1.50;;;;;;;;;;6210051;23;20375;-49
2021/09/30 17:59:01;;;;;;;6.90;1.80;;;;;;;;;;6209372;23;20447;-58
2021/09/30 18:01:28;;;;;;;4.45;1.45;;;;;;;;;;6207757;23;20856;-49
2021/09/30 18:03:54;;;;;;;9.43;5.00;;;;;;;;;;6181147;23;20355;-51
2021/09/30 18:06:20;;;;;;;15.13;9.55;;;;;;;;;;6207427;23;20344;-51
2021/09/30 18:08:46;;;;;;;21.75;13.73;;;;;;;;;;6181089;23;20368;-49
2021/09/30 18:11:13;;;;;;;19.98;12.45;;;;;;;;;;6210041;23;20363;-49
2021/09/30 18:13:39;;;;;;;20.83;11.82;;;;;;;;;;6182961;23;20691;-49
2021/09/30 18:16:05;;;;;;;18.85;10.45;;;;;;;;;;6210098;23;20737;-53
2021/09/30 18:18:32;;;;;;;18.85;10.75;;;;;;;;;;6183148;23;20749;-53
2021/09/30 18:21:18;;;;;;;21.33;13.37;;;;;;;;;;6209286;23;20376;-53
2021/09/30 18:23:47;;;;;;;18.88;11.25;;;;;;;;;;6210334;23;20340;-50
2021/09/30 18:26:19;;;;;;;15.75;9.50;;;;;;;;;;6208809;23;20594;-49
2021/09/30 18:28:50;;;;;;;12.38;8.15;;;;;;;;;;6209364;23;20531;-51
2021/09/30 18:31:19;;;;;;;11.23;6.72;;;;;;;;;;6184052;23;20340;-51
2021/09/30 18:33:46;;;;;;;11.57;6.40;;;;;;;;;;6185031;23;20348;-50
2021/09/30 18:36:14;;;;;;;13.63;6.82;;;;;;;;;;6182701;23;20614;-50
2021/09/30 18:38:40;;;;;;;11.07;6.07;;;;;;;;;;6211581;23;20339;-53
2021/09/30 18:41:09;;;;;;;9.52;6.03;;;;;;;;;;6183749;23;20383;-52
2021/09/30 18:43:37;;;;;;;9.50;4.97;;;;;;;;;;6184760;23;20458;-51
2021/09/30 18:46:03;;;;;;;11.73;5.20;;;;;;;;;;6184396;23;20355;-51
2021/09/30 18:48:29;;;;;;;8.45;4.55;;;;;;;;;;6184118;23;20402;-54
2021/09/30 18:50:56;;;;;;;9.70;4.60;;;;;;;;;;6211343;23;20362;-50
2021/09/30 18:53:22;;;;;;;10.32;4.47;;;;;;;;;;6210652;23;20626;-51
2021/09/30 18:55:48;;;;;;;7.95;3.88;;;;;;;;;;6184477;23;20348;-50
2021/09/30 18:58:14;;;;;;;9.45;4.05;;;;;;;;;;6211017;23;20402;-50
2021/09/30 19:00:40;;;;;;;8.77;4.10;;;;;;;;;;6209816;23;20387;-52
2021/09/30 19:03:07;;;;;;;8.60;4.05;;;;;;;;;;6183739;23;20599;-50
2021/09/30 19:05:36;;;;;;;9.45;3.60;;;;;;;;;;6184215;23;20494;-51
2021/09/30 19:08:06;;;;;;;7.25;3.45;;;;;;;;;;6183809;23;20363;-49
2021/09/30 19:10:33;;;;;;;7.95;3.85;;;;;;;;;;6209308;23;20842;-51
2021/09/30 19:13:01;;;;;;;6.95;3.20;;;;;;;;;;6210706;23;20331;-52
2021/09/30 19:15:27;;;;;;;8.40;3.63;;;;;;;;;;6184097;23;20423;-53
2021/09/30 19:17:54;;;;;;;7.13;3.10;;;;;;;;;;6183781;23;20410;-52
2021/09/30 19:20:21;;;;;;;6.82;3.55;;;;;;;;;;6210696;23;20375;-51
2021/09/30 19:22:47;;;;;;;6.90;3.00;;;;;;;;;;6159568;23;20364;-51
2021/09/30 19:25:14;;;;;;;6.90;3.10;;;;;;;;;;6210345;23;20328;-53
2021/09/30 19:27:45;;;;;;;5.75;2.95;;;;;;;;;;6183565;23;20395;-53
2021/09/30 19:30:11;;;;;;;7.13;3.30;;;;;;;;;;6211274;23;20335;-56
2021/09/30 19:32:37;;;;;;;5.55;2.47;;;;;;;;;;6184203;23;20348;-52
2021/09/30 19:35:05;;;;;;;5.38;2.85;;;;;;;;;;6184180;23;20348;-52
2021/09/30 19:37:31;;;;;;;5.63;2.67;;;;;;;;;;6184489;23;20352;-57
2021/09/30 19:39:57;;;;;;;6.10;2.95;;;;;;;;;;6183730;23;20383;-57
2021/09/30 19:42:25;;;;;;;6.35;2.80;;;;;;;;;;6210586;23;20386;-52
2021/09/30 19:44:51;;;;;;;8.27;4.15;;;;;;;;;;6210834;23;20823;-51
2021/09/30 19:47:22;;;;;;;9.98;5.40;;;;;;;;;;6184131;23;20379;-51
2021/09/30 19:49:48;;;;;;;8.77;4.80;;;;;;;;;;6211467;23;20330;-54
2021/09/30 19:52:14;;;;;;;8.15;4.28;;;;;;;;;;6184709;23;20352;-55
2021/09/30 19:54:41;;;;;;;9.02;4.60;;;;;;;;;;6210143;23;20338;-59
2021/09/30 19:57:08;;;;;;;8.55;4.60;;;;;;;;;;6183100;23;20344;-60
2021/09/30 19:59:34;;;;;;;8.25;4.53;;;;;;;;;;6183760;23;20855;-60
2021/09/30 20:02:00;;;;;;;7.68;4.25;;;;;;;;;;6210303;23;20340;-58
2021/09/30 20:04:26;;;;;;;9.13;4.75;;;;;;;;;;6210040;23;20336;-58
2021/09/30 20:06:52;;;;;;;7.90;4.20;;;;;;;;;;6209731;23;20375;-58
2021/09/30 20:09:18;;;;;;;7.22;3.80;;;;;;;;;;6205128;23;20381;-57
2021/09/30 20:11:45;;;;;;;6.63;3.75;;;;;;;;;;6183189;23;20466;-57
2021/09/30 20:14:11;;;;;;;7.53;4.20;;;;;;;;;;6211587;23;20470;-56
2021/09/30 20:16:37;;;;;;;8.33;4.13;;;;;;;;;;6210575;23;20340;-57
2021/09/30 20:19:04;;;;;;;6.53;3.63;;;;;;;;;;6184471;23;20351;-58
2021/09/30 20:21:30;;;;;;;7.93;3.90;;;;;;;;;;6183471;23;20726;-57
2021/09/30 20:23:56;;;;;;;6.07;3.40;;;;;;;;;;6208827;23;20347;-58
2021/09/30 20:26:24;;;;;;;7.97;3.85;;;;;;;;;;6210802;23;20496;-53
2021/09/30 20:28:51;;;;;;;8.48;3.85;;;;;;;;;;6183901;23;20367;-54
2021/09/30 20:31:17;;;;;;;8.15;3.95;;;;;;;;;;6211232;23;20369;-59
2021/09/30 20:33:44;;;;;;;6.93;4.03;;;;;;;;;;6211256;23;20439;-57
